sensor_id;sensor_type;location;lat;lon;timestamp;temperature;humidity
3790;DHT22;1910;49.042;9.028;2022-08-21T00:00:48;16.50;99.90
3790;DHT22;1910;49.042;9.028;2022-08-21T00:03:14;16.50;99.90
3790;DHT22;1910;49.042;9.028;2022-08-21T00:05:47;16.50;99.90
3790;DHT22;1910;49.042;9.028;2022-08-21T00:08:13;16.40;99.90
3790;DHT22;1910;49.042;9.028;2022-08-21T00:10:39;16.40;99.90
3790;DHT22;1910;49.042;9.028;2022-08-21T00:13:06;16.30;99.90
3790;DHT22;1910;49.042;9.028;2022-08-21T00:15:34;16.30;99.90
3790;DHT22;1910;49.042;9.028;2022-08-21T00:18:01;16.30;99.90
3790;DHT22;1910;49.042;9.028;2022-08-21T00:20:27;16.30;99.90
3790;DHT22;1910;49.042;9.028;2022-08-21T00:22:52;16.20;99.90
3790;DHT22;1910;49.042;9.028;2022-08-21T00:25:19;16.10;99.90
3790;DHT22;1910;49.042;9.028;2022-08-21T00:27:45;16.10;99.90
3790;DHT22;1910;49.042;9.028;2022-08-21T00:30:13;16.00;99.90
3790;DHT22;1910;49.042;9.028;2022-08-21T00:32:40;16.00;99.90
3790;DHT22;1910;49.042;9.028;2022-08-21T00:35:08;16.10;99.90
3790;DHT22;1910;49.042;9.028;2022-08-21T00:37:34;16.00;99.90
3790;DHT22;1910;49.042;9.028;2022-08-21T00:39:59;16.00;99.90
3790;DHT22;1910;49.042;9.028;2022-08-21T00:42:26;16.00;99.90
3790;DHT22;1910;49.042;9.028;2022-08-21T00:44:51;18.10;99.90
3790;DHT22;1910;49.042;9.028;2022-08-21T00:47:18;16.00;99.90
3790;DHT22;1910;49.042;9.028;2022-08-21T00:49:44;16.10;99.90
3790;DHT22;1910;49.042;9.028;2022-08-21T00:52:17;16.10;99.90
3790;DHT22;1910;49.042;9.028;2022-08-21T00:54:43;16.10;99.90
3790;DHT22;1910;49.042;9.028;2022-08-21T00:57:17;16.10;99.90
3790;DHT22;1910;49.042;9.028;2022-08-21T00:59:45;16.00;99.90
3790;DHT22;1910;49.042;9.028;2022-08-21T01:02:12;16.00;99.90
3790;DHT22;1910;49.042;9.028;2022-08-21T01:04:38;16.00;99.90
3790;DHT22;1910;49.042;9.028;2022-08-21T01:07:05;15.90;99.90
3790;DHT22;1910;49.042;9.028;2022-08-21T01:09:32;15.80;99.90
3790;DHT22;1910;49.042;9.028;2022-08-21T01:11:58;15.80;99.90
3790;DHT22;1910;49.042;9.028;2022-08-21T01:14:24;15.70;99.90
3790;DHT22;1910;49.042;9.028;2022-08-21T01:16:51;15.70;99.90
3790;DHT22;1910;49.042;9.028;2022-08-21T01:19:20;15.70;99.90
3790;DHT22;1910;49.042;9.028;2022-08-21T01:21:46;15.70;99.90
3790;DHT22;1910;49.042;9.028;2022-08-21T01:24:12;15.80;99.90
3790;DHT22;1910;49.042;9.028;2022-08-21T01:26:38;15.80;99.90
3790;DHT22;1910;49.042;9.028;2022-08-21T01:31:56;15.80;99.90
3790;DHT22;1910;49.042;9.028;2022-08-21T01:34:22;15.70;99.90
3790;DHT22;1910;49.042;9.028;2022-08-21T01:36:47;15.60;99.90
3790;DHT22;1910;49.042;9.028;2022-08-21T01:39:14;15.60;99.90
3790;DHT22;1910;49.042;9.028;2022-08-21T01:41:40;15.50;99.90
3790;DHT22;1910;49.042;9.028;2022-08-21T01:44:06;15.50;99.90
3790;DHT22;1910;49.042;9.028;2022-08-21T01:46:32;15.40;99.90
3790;DHT22;1910;49.042;9.028;2022-08-21T01:48:58;15.40;99.90
3790;DHT22;1910;49.042;9.028;2022-08-21T01:51:24;15.20;99.90
3790;DHT22;1910;49.042;9.028;2022-08-21T01:53:49;15.20;99.90
3790;DHT22;1910;49.042;9.028;2022-08-21T01:56:16;15.10;99.90
3790;DHT22;1910;49.042;9.028;2022-08-21T01:58:44;15.00;99.90
3790;DHT22;1910;49.042;9.028;2022-08-21T02:01:10;15.00;99.90
3790;DHT22;1910;49.042;9.028;2022-08-21T02:03:36;14.90;99.90
3790;DHT22;1910;49.042;9.028;2022-08-21T02:06:06;14.90;99.90
3790;DHT22;1910;49.042;9.028;2022-08-21T02:08:32;14.90;99.90
3790;DHT22;1910;49.042;9.028;2022-08-21T02:10:59;14.90;99.90
3790;DHT22;1910;49.042;9.028;2022-08-21T02:13:25;14.90;99.90
3790;DHT22;1910;49.042;9.028;2022-08-21T02:15:51;14.90;99.90
3790;DHT22;1910;49.042;9.028;2022-08-21T02:18:17;14.90;99.90
3790;DHT22;1910;49.042;9.028;2022-08-21T02:20:46;14.90;99.90
3790;DHT22;1910;49.042;9.028;2022-08-21T02:23:13;14.90;99.90
3790;DHT22;1910;49.042;9.028;2022-08-21T02:25:38;14.80;99.90
3790;DHT22;1910;49.042;9.028;2022-08-21T02:28:10;14.80;99.90
3790;DHT22;1910;49.042;9.028;2022-08-21T02:30:40;14.80;99.90
3790;DHT22;1910;49.042;9.028;2022-08-21T02:33:07;14.80;99.90
3790;DHT22;1910;49.042;9.028;2022-08-21T02:35:35;14.70;99.90
3790;DHT22;1910;49.042;9.028;2022-08-21T02:38:05;14.70;99.90
3790;DHT22;1910;49.042;9.028;2022-08-21T02:40:34;14.60;99.90
3790;DHT22;1910;49.042;9.028;2022-08-21T02:43:00;14.60;99.90
3790;DHT22;1910;49.042;9.028;2022-08-21T02:45:26;14.60;99.90
3790;DHT22;1910;49.042;9.028;2022-08-21T02:47:57;14.60;99.90
3790;DHT22;1910;49.042;9.028;2022-08-21T02:50:27;14.60;99.90
3790;DHT22;1910;49.042;9.028;2022-08-21T02:52:53;14.60;99.90
3790;DHT22;1910;49.042;9.028;2022-08-21T02:55:21;14.60;99.90
3790;DHT22;1910;49.042;9.028;2022-08-21T02:57:47;14.60;99.90
3790;DHT22;1910;49.042;9.028;2022-08-21T03:00:14;14.60;99.90
3790;DHT22;1910;49.042;9.028;2022-08-21T03:02:40;14.60;99.90
3790;DHT22;1910;49.042;9.028;2022-08-21T03:05:08;14.60;99.90
3790;DHT22;1910;49.042;9.028;2022-08-21T03:07:35;14.60;99.90
3790;DHT22;1910;49.042;9.028;2022-08-21T03:10:01;14.60;99.90
3790;DHT22;1910;49.042;9.028;2022-08-21T03:12:26;14.50;99.90
3790;DHT22;1910;49.042;9.028;2022-08-21T03:14:52;14.50;99.90
3790;DHT22;1910;49.042;9.028;2022-08-21T03:17:17;14.50;99.90
3790;DHT22;1910;49.042;9.028;2022-08-21T03:19:43;14.50;99.90
3790;DHT22;1910;49.042;9.028;2022-08-21T03:22:08;14.50;99.90
3790;DHT22;1910;49.042;9.028;2022-08-21T03:24:34;14.40;99.90
3790;DHT22;1910;49.042;9.028;2022-08-21T03:26:59;14.40;99.90
3790;DHT22;1910;49.042;9.028;2022-08-21T03:29:25;14.40;99.90
3790;DHT22;1910;49.042;9.028;2022-08-21T03:31:51;14.40;99.90
3790;DHT22;1910;49.042;9.028;2022-08-21T03:34:20;14.50;99.90
3790;DHT22;1910;49.042;9.028;2022-08-21T03:36:45;14.50;99.90
3790;DHT22;1910;49.042;9.028;2022-08-21T03:39:11;14.50;99.90
3790;DHT22;1910;49.042;9.028;2022-08-21T03:41:36;14.50;99.90
3790;DHT22;1910;49.042;9.028;2022-08-21T03:44:02;14.50;99.90
3790;DHT22;1910;49.042;9.028;2022-08-21T03:46:28;14.50;99.90
3790;DHT22;1910;49.042;9.028;2022-08-21T03:48:53;14.50;99.90
3790;DHT22;1910;49.042;9.028;2022-08-21T03:51:19;14.40;99.90
3790;DHT22;1910;49.042;9.028;2022-08-21T03:53:45;14.40;99.90
3790;DHT22;1910;49.042;9.028;2022-08-21T03:56:10;14.30;99.90
3790;DHT22;1910;49.042;9.028;2022-08-21T03:58:37;14.20;99.90
3790;DHT22;1910;49.042;9.028;2022-08-21T04:01:04;14.20;99.90
3790;DHT22;1910;49.042;9.028;2022-08-21T04:03:31;14.20;99.90
3790;DHT22;1910;49.042;9.028;2022-08-21T04:05:57;14.10;99.90
3790;DHT22;1910;49.042;9.028;2022-08-21T04:08:23;14.10;99.90
3790;DHT22;1910;49.042;9.028;2022-08-21T04:11:57;14.00;99.90
3790;DHT22;1910;49.042;9.028;2022-08-21T04:14:23;13.90;99.90
3790;DHT22;1910;49.042;9.028;2022-08-21T04:19:15;13.80;99.90
3790;DHT22;1910;49.042;9.028;2022-08-21T04:21:41;13.60;99.90
3790;DHT22;1910;49.042;9.028;2022-08-21T04:24:08;13.70;99.90
3790;DHT22;1910;49.042;9.028;2022-08-21T04:26:35;13.70;99.90
3790;DHT22;1910;49.042;9.028;2022-08-21T04:29:02;13.70;99.90
3790;DHT22;1910;49.042;9.028;2022-08-21T04:31:29;13.80;99.90
3790;DHT22;1910;49.042;9.028;2022-08-21T04:33:55;13.70;99.90
3790;DHT22;1910;49.042;9.028;2022-08-21T04:36:22;13.60;99.90
3790;DHT22;1910;49.042;9.028;2022-08-21T04:38:48;13.60;99.90
3790;DHT22;1910;49.042;9.028;2022-08-21T04:41:13;13.60;99.90
3790;DHT22;1910;49.042;9.028;2022-08-21T04:43:39;13.60;99.90
3790;DHT22;1910;49.042;9.028;2022-08-21T04:46:05;13.80;99.90
3790;DHT22;1910;49.042;9.028;2022-08-21T04:48:31;15.00;99.90
3790;DHT22;1910;49.042;9.028;2022-08-21T04:51:13;14.80;99.90
3790;DHT22;1910;49.042;9.028;2022-08-21T04:53:50;15.40;99.90
3790;DHT22;1910;49.042;9.028;2022-08-21T04:58:48;17.30;99.90
3790;DHT22;1910;49.042;9.028;2022-08-21T05:01:19;18.20;99.90
3790;DHT22;1910;49.042;9.028;2022-08-21T05:03:48;19.00;99.90
3790;DHT22;1910;49.042;9.028;2022-08-21T05:06:15;19.90;99.90
3790;DHT22;1910;49.042;9.028;2022-08-21T05:08:45;20.50;99.90
3790;DHT22;1910;49.042;9.028;2022-08-21T05:11:11;21.70;99.90
3790;DHT22;1910;49.042;9.028;2022-08-21T05:13:36;23.40;99.90
3790;DHT22;1910;49.042;9.028;2022-08-21T05:16:02;24.30;99.90
3790;DHT22;1910;49.042;9.028;2022-08-21T05:18:28;25.40;99.90
3790;DHT22;1910;49.042;9.028;2022-08-21T05:20:54;26.00;99.90
3790;DHT22;1910;49.042;9.028;2022-08-21T05:23:19;26.70;99.90
3790;DHT22;1910;49.042;9.028;2022-08-21T05:25:45;27.50;99.90
3790;DHT22;1910;49.042;9.028;2022-08-21T05:28:11;28.20;97.20
3790;DHT22;1910;49.042;9.028;2022-08-21T05:30:37;29.00;95.00
3790;DHT22;1910;49.042;9.028;2022-08-21T05:33:04;29.60;92.40
3790;DHT22;1910;49.042;9.028;2022-08-21T05:35:31;29.90;90.90
3790;DHT22;1910;49.042;9.028;2022-08-21T05:37:58;30.00;89.50
3790;DHT22;1910;49.042;9.028;2022-08-21T05:40:24;30.60;88.50
3790;DHT22;1910;49.042;9.028;2022-08-21T05:42:50;31.60;84.00
3790;DHT22;1910;49.042;9.028;2022-08-21T05:45:16;32.90;78.30
3790;DHT22;1910;49.042;9.028;2022-08-21T05:47:42;33.50;72.90
3790;DHT22;1910;49.042;9.028;2022-08-21T05:50:08;33.40;68.90
3790;DHT22;1910;49.042;9.028;2022-08-21T05:52:34;34.30;67.10
3790;DHT22;1910;49.042;9.028;2022-08-21T05:54:59;35.40;63.60
3790;DHT22;1910;49.042;9.028;2022-08-21T05:57:25;36.10;59.40
3790;DHT22;1910;49.042;9.028;2022-08-21T05:59:51;36.90;57.60
3790;DHT22;1910;49.042;9.028;2022-08-21T06:02:18;37.60;55.60
3790;DHT22;1910;49.042;9.028;2022-08-21T06:04:44;37.90;51.90
3790;DHT22;1910;49.042;9.028;2022-08-21T06:09:36;39.40;47.90
3790;DHT22;1910;49.042;9.028;2022-08-21T06:12:08;40.00;45.30
3790;DHT22;1910;49.042;9.028;2022-08-21T06:14:34;40.10;45.70
3790;DHT22;1910;49.042;9.028;2022-08-21T06:17:05;40.80;44.60
3790;DHT22;1910;49.042;9.028;2022-08-21T06:19:30;41.70;42.50
3790;DHT22;1910;49.042;9.028;2022-08-21T06:21:56;41.80;40.50
3790;DHT22;1910;49.042;9.028;2022-08-21T06:24:22;40.60;40.40
3790;DHT22;1910;49.042;9.028;2022-08-21T06:26:48;40.20;40.60
3790;DHT22;1910;49.042;9.028;2022-08-21T06:29:13;39.70;40.20
3790;DHT22;1910;49.042;9.028;2022-08-21T06:31:42;39.90;41.70
3790;DHT22;1910;49.042;9.028;2022-08-21T06:34:08;39.70;42.00
3790;DHT22;1910;49.042;9.028;2022-08-21T06:36:33;40.80;40.60
3790;DHT22;1910;49.042;9.028;2022-08-21T06:38:59;40.50;40.00
3790;DHT22;1910;49.042;9.028;2022-08-21T06:41:26;40.10;39.90
3790;DHT22;1910;49.042;9.028;2022-08-21T06:46:18;40.10;39.30
3790;DHT22;1910;49.042;9.028;2022-08-21T06:48:43;40.80;39.10
3790;DHT22;1910;49.042;9.028;2022-08-21T06:51:09;42.70;36.00
3790;DHT22;1910;49.042;9.028;2022-08-21T06:53:34;42.60;36.40
3790;DHT22;1910;49.042;9.028;2022-08-21T06:56:00;41.60;36.70
3790;DHT22;1910;49.042;9.028;2022-08-21T06:58:25;41.00;37.50
3790;DHT22;1910;49.042;9.028;2022-08-21T07:00:51;40.50;38.10
3790;DHT22;1910;49.042;9.028;2022-08-21T07:03:22;40.20;38.20
3790;DHT22;1910;49.042;9.028;2022-08-21T07:08:15;41.30;38.10
3790;DHT22;1910;49.042;9.028;2022-08-21T07:15:33;41.10;36.80
3790;DHT22;1910;49.042;9.028;2022-08-21T07:17:59;41.70;37.60
3790;DHT22;1910;49.042;9.028;2022-08-21T07:20:26;41.60;36.80
3790;DHT22;1910;49.042;9.028;2022-08-21T07:22:52;42.60;35.70
3790;DHT22;1910;49.042;9.028;2022-08-21T07:27:44;42.40;34.30
3790;DHT22;1910;49.042;9.028;2022-08-21T07:30:09;42.50;35.30
3790;DHT22;1910;49.042;9.028;2022-08-21T07:35:02;43.60;33.70
3790;DHT22;1910;49.042;9.028;2022-08-21T07:37:27;42.70;33.50
3790;DHT22;1910;49.042;9.028;2022-08-21T07:39:53;40.50;35.10
3790;DHT22;1910;49.042;9.028;2022-08-21T07:44:44;37.80;37.00
3790;DHT22;1910;49.042;9.028;2022-08-21T07:49:36;37.10;38.60
3790;DHT22;1910;49.042;9.028;2022-08-21T07:52:02;38.00;38.70
3790;DHT22;1910;49.042;9.028;2022-08-21T07:54:27;38.70;38.00
3790;DHT22;1910;49.042;9.028;2022-08-21T07:56:53;39.20;37.70
3790;DHT22;1910;49.042;9.028;2022-08-21T08:01:44;37.70;38.10
3790;DHT22;1910;49.042;9.028;2022-08-21T08:06:36;38.90;37.50
3790;DHT22;1910;49.042;9.028;2022-08-21T08:09:02;38.90;38.80
3790;DHT22;1910;49.042;9.028;2022-08-21T08:11:29;38.20;37.60
3790;DHT22;1910;49.042;9.028;2022-08-21T08:16:23;37.40;38.40
3790;DHT22;1910;49.042;9.028;2022-08-21T08:18:48;37.50;38.30
3790;DHT22;1910;49.042;9.028;2022-08-21T08:21:14;38.20;38.70
3790;DHT22;1910;49.042;9.028;2022-08-21T08:23:40;38.00;37.80
3790;DHT22;1910;49.042;9.028;2022-08-21T08:26:06;37.90;38.60
3790;DHT22;1910;49.042;9.028;2022-08-21T08:30:59;40.00;36.70
3790;DHT22;1910;49.042;9.028;2022-08-21T08:33:26;39.50;36.60
3790;DHT22;1910;49.042;9.028;2022-08-21T08:35:52;39.40;36.10
3790;DHT22;1910;49.042;9.028;2022-08-21T08:38:19;39.50;36.10
3790;DHT22;1910;49.042;9.028;2022-08-21T08:43:18;40.10;35.90
3790;DHT22;1910;49.042;9.028;2022-08-21T08:45:49;39.30;35.70
3790;DHT22;1910;49.042;9.028;2022-08-21T08:51:28;37.60;36.10
3790;DHT22;1910;49.042;9.028;2022-08-21T08:54:01;36.80;38.10
3790;DHT22;1910;49.042;9.028;2022-08-21T08:56:30;36.60;36.50
3790;DHT22;1910;49.042;9.028;2022-08-21T08:59:02;36.40;37.70
3790;DHT22;1910;49.042;9.028;2022-08-21T09:01:28;35.90;38.00
3790;DHT22;1910;49.042;9.028;2022-08-21T09:06:37;37.10;37.20
3790;DHT22;1910;49.042;9.028;2022-08-21T09:20:37;37.80;37.50
3790;DHT22;1910;49.042;9.028;2022-08-21T09:28:25;37.70;34.60
3790;DHT22;1910;49.042;9.028;2022-08-21T09:30:54;35.50;36.90
3790;DHT22;1910;49.042;9.028;2022-08-21T09:33:21;34.10;39.10
3790;DHT22;1910;49.042;9.028;2022-08-21T09:35:55;33.60;38.70
3790;DHT22;1910;49.042;9.028;2022-08-21T09:38:34;33.50;37.50
3790;DHT22;1910;49.042;9.028;2022-08-21T09:41:04;34.70;37.70
3790;DHT22;1910;49.042;9.028;2022-08-21T09:43:30;35.00;38.30
3790;DHT22;1910;49.042;9.028;2022-08-21T09:46:19;34.40;37.30
3790;DHT22;1910;49.042;9.028;2022-08-21T09:48:47;34.60;37.00
3790;DHT22;1910;49.042;9.028;2022-08-21T09:51:23;33.70;39.00
3790;DHT22;1910;49.042;9.028;2022-08-21T09:53:53;33.40;39.70
3790;DHT22;1910;49.042;9.028;2022-08-21T09:59:17;36.20;38.50
3790;DHT22;1910;49.042;9.028;2022-08-21T10:01:46;38.20;36.60
3790;DHT22;1910;49.042;9.028;2022-08-21T10:04:12;36.50;35.30
3790;DHT22;1910;49.042;9.028;2022-08-21T10:06:38;34.50;37.00
3790;DHT22;1910;49.042;9.028;2022-08-21T10:09:14;36.10;37.30
3790;DHT22;1910;49.042;9.028;2022-08-21T10:17:37;37.20;34.60
3790;DHT22;1910;49.042;9.028;2022-08-21T10:20:13;37.30;35.10
3790;DHT22;1910;49.042;9.028;2022-08-21T10:25:49;35.60;36.30
3790;DHT22;1910;49.042;9.028;2022-08-21T10:33:53;32.40;41.50
3790;DHT22;1910;49.042;9.028;2022-08-21T10:36:32;30.60;42.50
3790;DHT22;1910;49.042;9.028;2022-08-21T10:42:05;30.40;44.70
3790;DHT22;1910;49.042;9.028;2022-08-21T10:47:19;29.50;47.00
3790;DHT22;1910;49.042;9.028;2022-08-21T10:55:10;29.50;46.10
3790;DHT22;1910;49.042;9.028;2022-08-21T11:00:14;28.60;46.60
3790;DHT22;1910;49.042;9.028;2022-08-21T11:06:04;26.70;49.00
3790;DHT22;1910;49.042;9.028;2022-08-21T11:08:33;26.20;50.70
3790;DHT22;1910;49.042;9.028;2022-08-21T11:11:18;26.10;51.90
3790;DHT22;1910;49.042;9.028;2022-08-21T11:13:50;26.40;50.90
3790;DHT22;1910;49.042;9.028;2022-08-21T11:16:42;26.90;51.40
3790;DHT22;1910;49.042;9.028;2022-08-21T11:21:54;28.10;50.90
3790;DHT22;1910;49.042;9.028;2022-08-21T11:29:38;28.20;48.30
3790;DHT22;1910;49.042;9.028;2022-08-21T11:34:54;27.90;51.50
3790;DHT22;1910;49.042;9.028;2022-08-21T11:40:04;28.60;49.20
3790;DHT22;1910;49.042;9.028;2022-08-21T11:45:44;29.10;48.50
3790;DHT22;1910;49.042;9.028;2022-08-21T11:48:34;29.40;48.40
3790;DHT22;1910;49.042;9.028;2022-08-21T11:51:05;29.10;48.90
3790;DHT22;1910;49.042;9.028;2022-08-21T11:56:20;28.80;48.70
3790;DHT22;1910;49.042;9.028;2022-08-21T11:58:58;28.80;48.90
3790;DHT22;1910;49.042;9.028;2022-08-21T12:01:32;28.60;48.40
3790;DHT22;1910;49.042;9.028;2022-08-21T12:04:02;29.00;49.30
3790;DHT22;1910;49.042;9.028;2022-08-21T12:06:35;29.40;47.70
3790;DHT22;1910;49.042;9.028;2022-08-21T12:09:05;28.00;48.30
3790;DHT22;1910;49.042;9.028;2022-08-21T12:11:31;28.00;48.80
3790;DHT22;1910;49.042;9.028;2022-08-21T12:14:00;27.80;49.20
3790;DHT22;1910;49.042;9.028;2022-08-21T12:16:39;27.80;49.60
3790;DHT22;1910;49.042;9.028;2022-08-21T12:27:29;27.80;49.50
3790;DHT22;1910;49.042;9.028;2022-08-21T12:30:18;28.20;49.60
3790;DHT22;1910;49.042;9.028;2022-08-21T12:32:53;28.50;48.70
3790;DHT22;1910;49.042;9.028;2022-08-21T12:35:25;28.60;49.10
3790;DHT22;1910;49.042;9.028;2022-08-21T12:40:41;27.70;49.30
3790;DHT22;1910;49.042;9.028;2022-08-21T12:43:14;27.40;49.00
3790;DHT22;1910;49.042;9.028;2022-08-21T12:45:44;27.60;49.60
3790;DHT22;1910;49.042;9.028;2022-08-21T12:48:29;28.40;49.40
3790;DHT22;1910;49.042;9.028;2022-08-21T12:51:22;29.10;47.20
3790;DHT22;1910;49.042;9.028;2022-08-21T12:53:51;29.30;46.30
3790;DHT22;1910;49.042;9.028;2022-08-21T12:56:28;29.60;46.50
3790;DHT22;1910;49.042;9.028;2022-08-21T12:59:01;29.50;47.10
3790;DHT22;1910;49.042;9.028;2022-08-21T13:01:45;29.10;47.50
3790;DHT22;1910;49.042;9.028;2022-08-21T13:04:15;29.20;47.00
3790;DHT22;1910;49.042;9.028;2022-08-21T13:06:44;28.50;46.80
3790;DHT22;1910;49.042;9.028;2022-08-21T13:09:13;29.00;46.70
3790;DHT22;1910;49.042;9.028;2022-08-21T13:11:41;29.00;47.20
3790;DHT22;1910;49.042;9.028;2022-08-21T13:14:20;28.30;47.60
3790;DHT22;1910;49.042;9.028;2022-08-21T13:16:53;28.30;47.80
3790;DHT22;1910;49.042;9.028;2022-08-21T13:19:19;28.80;48.30
3790;DHT22;1910;49.042;9.028;2022-08-21T13:21:45;29.30;47.80
3790;DHT22;1910;49.042;9.028;2022-08-21T13:24:21;28.20;46.80
3790;DHT22;1910;49.042;9.028;2022-08-21T13:26:47;28.10;47.70
3790;DHT22;1910;49.042;9.028;2022-08-21T13:29:16;28.10;48.40
3790;DHT22;1910;49.042;9.028;2022-08-21T13:31:57;27.50;49.00
3790;DHT22;1910;49.042;9.028;2022-08-21T13:34:25;27.50;49.50
3790;DHT22;1910;49.042;9.028;2022-08-21T13:36:55;27.80;49.70
3790;DHT22;1910;49.042;9.028;2022-08-21T13:39:21;28.30;48.90
3790;DHT22;1910;49.042;9.028;2022-08-21T13:41:50;28.10;47.10
3790;DHT22;1910;49.042;9.028;2022-08-21T13:44:20;27.80;47.60
3790;DHT22;1910;49.042;9.028;2022-08-21T13:46:49;26.70;47.90
3790;DHT22;1910;49.042;9.028;2022-08-21T13:49:18;26.90;49.00
3790;DHT22;1910;49.042;9.028;2022-08-21T13:51:47;27.30;48.60
3790;DHT22;1910;49.042;9.028;2022-08-21T13:56:45;27.40;49.20
3790;DHT22;1910;49.042;9.028;2022-08-21T13:59:12;27.60;47.30
3790;DHT22;1910;49.042;9.028;2022-08-21T14:02:14;28.00;47.50
3790;DHT22;1910;49.042;9.028;2022-08-21T14:04:56;28.00;46.40
3790;DHT22;1910;49.042;9.028;2022-08-21T14:07:37;28.10;47.40
3790;DHT22;1910;49.042;9.028;2022-08-21T14:10:14;27.90;47.60
3790;DHT22;1910;49.042;9.028;2022-08-21T14:15:18;27.90;47.40
3790;DHT22;1910;49.042;9.028;2022-08-21T14:17:45;28.00;47.20
3790;DHT22;1910;49.042;9.028;2022-08-21T14:20:26;28.10;45.90
3790;DHT22;1910;49.042;9.028;2022-08-21T14:22:52;28.30;46.10
3790;DHT22;1910;49.042;9.028;2022-08-21T14:27:50;28.70;45.10
3790;DHT22;1910;49.042;9.028;2022-08-21T14:30:29;28.80;44.80
3790;DHT22;1910;49.042;9.028;2022-08-21T14:32:55;28.60;44.60
3790;DHT22;1910;49.042;9.028;2022-08-21T14:35:21;28.60;44.90
3790;DHT22;1910;49.042;9.028;2022-08-21T14:37:48;28.40;44.20
3790;DHT22;1910;49.042;9.028;2022-08-21T14:40:16;28.50;44.70
3790;DHT22;1910;49.042;9.028;2022-08-21T14:42:43;28.50;44.60
3790;DHT22;1910;49.042;9.028;2022-08-21T14:45:16;28.50;44.50
3790;DHT22;1910;49.042;9.028;2022-08-21T14:47:42;28.60;43.60
3790;DHT22;1910;49.042;9.028;2022-08-21T14:50:12;28.70;44.40
3790;DHT22;1910;49.042;9.028;2022-08-21T14:52:38;29.00;43.20
3790;DHT22;1910;49.042;9.028;2022-08-21T14:55:06;29.00;43.90
3790;DHT22;1910;49.042;9.028;2022-08-21T14:57:33;29.00;42.90
3790;DHT22;1910;49.042;9.028;2022-08-21T14:59:59;29.00;42.70
3790;DHT22;1910;49.042;9.028;2022-08-21T15:02:25;29.00;42.00
3790;DHT22;1910;49.042;9.028;2022-08-21T15:07:17;28.40;41.40
3790;DHT22;1910;49.042;9.028;2022-08-21T15:09:43;28.40;41.90
3790;DHT22;1910;49.042;9.028;2022-08-21T15:12:08;28.40;42.20
3790;DHT22;1910;49.042;9.028;2022-08-21T15:14:38;28.50;42.40
3790;DHT22;1910;49.042;9.028;2022-08-21T15:17:06;28.70;42.00
3790;DHT22;1910;49.042;9.028;2022-08-21T15:19:33;28.70;42.20
3790;DHT22;1910;49.042;9.028;2022-08-21T15:21:59;28.80;41.90
3790;DHT22;1910;49.042;9.028;2022-08-21T15:24:25;28.90;41.10
3790;DHT22;1910;49.042;9.028;2022-08-21T15:26:52;28.70;42.20
3790;DHT22;1910;49.042;9.028;2022-08-21T15:29:18;28.50;41.90
3790;DHT22;1910;49.042;9.028;2022-08-21T15:31:58;28.40;41.90
3790;DHT22;1910;49.042;9.028;2022-08-21T15:34:26;28.40;41.20
3790;DHT22;1910;49.042;9.028;2022-08-21T15:36:52;28.40;41.40
3790;DHT22;1910;49.042;9.028;2022-08-21T15:39:18;28.20;41.40
3790;DHT22;1910;49.042;9.028;2022-08-21T15:41:44;28.40;41.20
3790;DHT22;1910;49.042;9.028;2022-08-21T15:44:12;28.40;42.30
3790;DHT22;1910;49.042;9.028;2022-08-21T15:46:38;28.10;42.00
3790;DHT22;1910;49.042;9.028;2022-08-21T15:49:04;27.90;41.80
3790;DHT22;1910;49.042;9.028;2022-08-21T15:51:32;29.50;42.30
3790;DHT22;1910;49.042;9.028;2022-08-21T15:53:58;27.90;41.60
3790;DHT22;1910;49.042;9.028;2022-08-21T15:56:43;27.80;43.00
3790;DHT22;1910;49.042;9.028;2022-08-21T15:59:19;27.90;42.80
3790;DHT22;1910;49.042;9.028;2022-08-21T16:01:50;27.80;41.90
3790;DHT22;1910;49.042;9.028;2022-08-21T16:04:25;27.90;42.40
3790;DHT22;1910;49.042;9.028;2022-08-21T16:06:51;28.40;42.70
3790;DHT22;1910;49.042;9.028;2022-08-21T16:09:17;27.70;42.50
3790;DHT22;1910;49.042;9.028;2022-08-21T16:11:43;27.80;41.40
3790;DHT22;1910;49.042;9.028;2022-08-21T16:14:14;28.00;41.60
3790;DHT22;1910;49.042;9.028;2022-08-21T16:16:40;27.90;42.10
3790;DHT22;1910;49.042;9.028;2022-08-21T16:21:33;28.00;39.80
3790;DHT22;1910;49.042;9.028;2022-08-21T16:23:58;28.10;58.70
3790;DHT22;1910;49.042;9.028;2022-08-21T16:26:24;28.00;40.00
3790;DHT22;1910;49.042;9.028;2022-08-21T16:28:52;28.10;41.00
3790;DHT22;1910;49.042;9.028;2022-08-21T16:31:19;28.00;40.90
3790;DHT22;1910;49.042;9.028;2022-08-21T16:33:52;28.30;41.00
3790;DHT22;1910;49.042;9.028;2022-08-21T16:36:19;28.60;40.90
3790;DHT22;1910;49.042;9.028;2022-08-21T16:38:45;28.20;41.00
3790;DHT22;1910;49.042;9.028;2022-08-21T16:41:15;27.80;41.70
3790;DHT22;1910;49.042;9.028;2022-08-21T16:43:42;27.70;43.00
3790;DHT22;1910;49.042;9.028;2022-08-21T16:46:09;27.50;43.50
3790;DHT22;1910;49.042;9.028;2022-08-21T16:48:36;27.50;44.30
3790;DHT22;1910;49.042;9.028;2022-08-21T16:51:02;27.50;43.70
3790;DHT22;1910;49.042;9.028;2022-08-21T16:53:28;27.40;43.60
3790;DHT22;1910;49.042;9.028;2022-08-21T16:55:53;27.40;44.00
3790;DHT22;1910;49.042;9.028;2022-08-21T16:58:28;27.40;44.50
3790;DHT22;1910;49.042;9.028;2022-08-21T17:00:54;27.30;44.10
3790;DHT22;1910;49.042;9.028;2022-08-21T17:03:27;27.30;44.10
3790;DHT22;1910;49.042;9.028;2022-08-21T17:05:53;27.20;44.80
3790;DHT22;1910;49.042;9.028;2022-08-21T17:08:19;27.30;43.80
3790;DHT22;1910;49.042;9.028;2022-08-21T17:10:47;27.40;44.00
3790;DHT22;1910;49.042;9.028;2022-08-21T17:13:14;27.30;44.10
3790;DHT22;1910;49.042;9.028;2022-08-21T17:15:40;27.10;44.90
3790;DHT22;1910;49.042;9.028;2022-08-21T17:18:09;26.90;44.40
3790;DHT22;1910;49.042;9.028;2022-08-21T17:20:36;26.80;44.10
3790;DHT22;1910;49.042;9.028;2022-08-21T17:23:01;26.70;44.70
3790;DHT22;1910;49.042;9.028;2022-08-21T17:25:27;26.60;44.70
3790;DHT22;1910;49.042;9.028;2022-08-21T17:27:53;26.50;44.50
3790;DHT22;1910;49.042;9.028;2022-08-21T17:30:19;26.40;44.10
3790;DHT22;1910;49.042;9.028;2022-08-21T17:32:46;26.30;45.20
3790;DHT22;1910;49.042;9.028;2022-08-21T17:35:13;26.20;45.60
3790;DHT22;1910;49.042;9.028;2022-08-21T17:37:38;26.20;46.10
3790;DHT22;1910;49.042;9.028;2022-08-21T17:40:06;26.10;45.70
3790;DHT22;1910;49.042;9.028;2022-08-21T17:42:31;26.00;45.70
3790;DHT22;1910;49.042;9.028;2022-08-21T17:44:58;25.80;46.10
3790;DHT22;1910;49.042;9.028;2022-08-21T17:47:24;25.60;46.30
3790;DHT22;1910;49.042;9.028;2022-08-21T17:49:50;25.40;47.20
3790;DHT22;1910;49.042;9.028;2022-08-21T17:52:15;25.20;49.60
3790;DHT22;1910;49.042;9.028;2022-08-21T17:54:41;25.00;51.80
3790;DHT22;1910;49.042;9.028;2022-08-21T17:57:07;25.10;53.50
3790;DHT22;1910;49.042;9.028;2022-08-21T17:59:38;24.40;54.00
3790;DHT22;1910;49.042;9.028;2022-08-21T18:02:05;24.00;55.10
3790;DHT22;1910;49.042;9.028;2022-08-21T18:04:32;23.70;55.40
3790;DHT22;1910;49.042;9.028;2022-08-21T18:06:57;23.50;55.60
3790;DHT22;1910;49.042;9.028;2022-08-21T18:09:23;23.20;55.60
3790;DHT22;1910;49.042;9.028;2022-08-21T18:14:26;22.80;57.20
3790;DHT22;1910;49.042;9.028;2022-08-21T18:16:52;22.50;58.80
3790;DHT22;1910;49.042;9.028;2022-08-21T18:19:17;22.20;58.80
3790;DHT22;1910;49.042;9.028;2022-08-21T18:21:49;25.00;63.70
3790;DHT22;1910;49.042;9.028;2022-08-21T18:24:15;21.70;60.70
3790;DHT22;1910;49.042;9.028;2022-08-21T18:26:40;21.50;61.50
3790;DHT22;1910;49.042;9.028;2022-08-21T18:29:08;21.30;62.80
3790;DHT22;1910;49.042;9.028;2022-08-21T18:31:36;21.20;62.70
3790;DHT22;1910;49.042;9.028;2022-08-21T18:34:08;21.10;62.80